Time,TemperatureF,DewpointF,PressureIn,WindDirection,WindDirectionDegrees,WindSpeedMPH,WindSpeedGustMPH,Humidity,HourlyPrecipIn,Conditions,Clouds,dailyrainin,SoftwareType,DateUTC
2013-05-27 00:00:00,57.8,50.6,29.95,WSW,248,1.8,1.8,77,0.00,,,0.00,WUHU216HW,2013-05-27 07:00:00,
2013-05-27 00:05:00,57.8,50.6,29.95,South,180,4.3,4.3,77,0.00,,,0.00,WUHU216HW,2013-05-27 07:05:00,
2013-05-27 00:10:00,57.8,50.6,29.95,South,180,4.3,4.3,77,0.00,,,0.00,WUHU216HW,2013-05-27 07:10:00,
2013-05-27 00:30:00,56.9,50.8,29.95,SW,225,5.6,5.6,80,0.00,,,0.00,WUHU216HW,2013-05-27 07:30:00,
2013-05-27 00:35:00,56.9,50.8,29.95,SW,225,5.6,5.6,80,0.00,,,0.00,WUHU216HW,2013-05-27 07:35:00,
2013-05-27 00:40:00,56.9,50.8,29.95,SW,225,5.6,5.6,80,0.00,,,0.00,WUHU216HW,2013-05-27 07:40:00,
2013-05-27 00:59:00,56.5,50.8,29.95,West,270,1.8,1.8,81,0.00,,,0.00,WUHU216HW,2013-05-27 07:59:00,
2013-05-27 01:04:00,56.7,51.2,29.95,WSW,248,1.6,1.8,82,0.00,,,0.00,WUHU216HW,2013-05-27 08:04:00,
2013-05-27 01:09:00,56.7,51.2,29.95,WSW,248,1.6,1.8,82,0.00,,,0.00,WUHU216HW,2013-05-27 08:09:00,
2013-05-27 01:30:00,57.6,51.1,29.94,West,270,0.0,0.0,79,0.00,,,0.00,WUHU216HW,2013-05-27 08:30:00,
2013-05-27 01:35:00,57.6,51.1,29.94,West,270,0.2,0.2,79,0.00,,,0.00,WUHU216HW,2013-05-27 08:35:00,
2013-05-27 01:40:00,57.6,51.1,29.94,West,270,0.2,0.2,79,0.00,,,0.00,WUHU216HW,2013-05-27 08:40:00,
2013-05-27 01:59:00,58.3,51.8,29.94,West,270,0.2,0.2,79,0.00,,,0.00,WUHU216HW,2013-05-27 08:59:00,
2013-05-27 02:04:00,58.3,51.8,29.94,West,270,0.4,0.4,79,0.00,,,0.00,WUHU216HW,2013-05-27 09:04:00,
2013-05-27 02:09:00,58.3,51.8,29.94,West,270,0.4,0.4,79,0.00,,,0.00,WUHU216HW,2013-05-27 09:09:00,
2013-05-27 02:30:00,58.9,52.0,29.93,WSW,248,0.0,0.0,78,0.00,,,0.00,WUHU216HW,2013-05-27 09:30:00,
2013-05-27 02:35:00,58.9,52.0,29.93,WSW,248,0.0,0.0,78,0.00,,,0.00,WUHU216HW,2013-05-27 09:35:00,
2013-05-27 02:40:00,58.9,52.0,29.93,WSW,248,0.0,0.0,78,0.00,,,0.00,WUHU216HW,2013-05-27 09:40:00,
2013-05-27 02:59:00,59.4,51.8,29.92,SSE,158,0.7,0.7,76,0.00,,,0.00,WUHU216HW,2013-05-27 09:59:00,
2013-05-27 03:04:00,59.4,51.8,29.92,SSE,158,0.4,0.7,76,0.00,,,0.00,WUHU216HW,2013-05-27 10:04:00,
2013-05-27 03:09:00,59.4,51.8,29.92,SSE,158,0.4,0.7,76,0.00,,,0.00,WUHU216HW,2013-05-27 10:09:00,
2013-05-27 03:30:00,58.3,50.8,29.91,SE,135,1.1,1.1,76,0.00,,,0.00,WUHU216HW,2013-05-27 10:30:00,
2013-05-27 03:35:00,58.3,50.8,29.91,SE,135,1.1,1.1,76,0.00,,,0.00,WUHU216HW,2013-05-27 10:35:00,
2013-05-27 03:40:00,58.3,50.8,29.91,SE,135,1.1,1.1,76,0.00,,,0.00,WUHU216HW,2013-05-27 10:40:00,
2013-05-27 03:59:00,55.1,49.7,29.91,East,90,2.2,2.2,82,0.00,,,0.00,WUHU216HW,2013-05-27 10:59:00,
2013-05-27 04:04:00,55.1,49.7,29.91,East,90,1.8,2.2,82,0.00,,,0.00,WUHU216HW,2013-05-27 11:04:00,
2013-05-27 04:09:00,55.1,49.7,29.91,East,90,1.8,1.8,82,0.00,,,0.00,WUHU216HW,2013-05-27 11:09:00,
2013-05-27 04:30:00,54.2,49.4,29.91,SE,135,0.7,0.7,84,0.00,,,0.00,WUHU216HW,2013-05-27 11:30:00,
2013-05-27 04:35:00,54.4,49.6,29.91,SE,135,1.8,1.8,84,0.00,,,0.00,WUHU216HW,2013-05-27 11:35:00,
2013-05-27 04:40:00,54.4,49.6,29.91,SE,135,1.8,1.8,84,0.00,,,0.00,WUHU216HW,2013-05-27 11:40:00,
2013-05-27 04:59:00,54.0,49.6,29.90,SSE,158,1.1,1.1,85,0.00,,,0.00,WUHU216HW,2013-05-27 11:59:00,
2013-05-27 05:04:00,54.0,49.6,29.90,SSE,158,1.1,1.1,85,0.00,,,0.00,WUHU216HW,2013-05-27 12:04:00,
2013-05-27 05:09:00,54.0,49.6,29.90,SSE,158,1.1,1.1,85,0.00,,,0.00,WUHU216HW,2013-05-27 12:09:00,
2013-05-27 05:30:00,53.8,49.7,29.89,SSE,158,0.2,0.2,86,0.00,,,0.00,WUHU216HW,2013-05-27 12:30:00,
2013-05-27 05:35:00,53.8,49.7,29.89,SSE,158,0.7,0.7,86,0.00,,,0.00,WUHU216HW,2013-05-27 12:35:00,
2013-05-27 05:40:00,53.8,49.7,29.89,SSE,158,0.7,0.7,86,0.00,,,0.00,WUHU216HW,2013-05-27 12:40:00,
2013-05-27 05:59:00,53.8,49.7,29.90,ESE,113,0.0,0.0,86,0.00,,,0.00,WUHU216HW,2013-05-27 12:59:00,
2013-05-27 06:04:00,53.8,49.7,29.90,ESE,113,0.0,0.0,86,0.00,,,0.00,WUHU216HW,2013-05-27 13:04:00,
2013-05-27 06:09:00,53.8,49.7,29.90,ESE,113,0.0,0.0,86,0.00,,,0.00,WUHU216HW,2013-05-27 13:09:00,
2013-05-27 06:30:00,53.8,49.7,29.90,SE,135,0.0,0.0,86,0.00,,,0.00,WUHU216HW,2013-05-27 13:30:00,
2013-05-27 06:35:00,53.8,49.7,29.90,SE,135,0.0,0.0,86,0.00,,,0.00,WUHU216HW,2013-05-27 13:35:00,
2013-05-27 06:40:00,53.8,49.7,29.90,SE,135,0.0,0.0,86,0.00,,,0.00,WUHU216HW,2013-05-27 13:40:00,
2013-05-27 06:59:00,55.1,51.0,29.91,WNW,293,0.0,0.0,86,0.00,,,0.00,WUHU216HW,2013-05-27 13:59:00,
2013-05-27 07:04:00,55.1,51.0,29.91,WNW,293,0.0,0.0,86,0.00,,,0.00,WUHU216HW,2013-05-27 14:04:00,
2013-05-27 07:09:00,55.1,51.0,29.91,WNW,293,0.0,0.0,86,0.00,,,0.00,WUHU216HW,2013-05-27 14:09:00,
2013-05-27 07:30:00,56.0,51.1,29.92,WNW,293,0.9,0.9,84,0.00,,,0.00,WUHU216HW,2013-05-27 14:30:00,
2013-05-27 07:35:00,56.0,51.1,29.92,WNW,293,0.9,0.9,84,0.00,,,0.00,WUHU216HW,2013-05-27 14:35:00,
2013-05-27 07:40:00,56.0,51.1,29.92,WNW,293,0.9,0.9,84,0.00,,,0.00,WUHU216HW,2013-05-27 14:40:00,
2013-05-27 07:59:00,59.4,54.3,29.92,NW,315,2.0,2.0,83,0.00,,,0.00,WUHU216HW,2013-05-27 14:59:00,
2013-05-27 08:04:00,59.6,54.1,29.92,NW,315,0.9,2.0,82,0.00,,,0.00,WUHU216HW,2013-05-27 15:04:00,
2013-05-27 08:09:00,59.6,54.1,29.92,NW,315,0.9,1.3,82,0.00,,,0.00,WUHU216HW,2013-05-27 15:09:00,
2013-05-27 08:30:00,65.0,56.5,29.92,SE,135,0.2,0.2,74,0.00,,,0.00,WUHU216HW,2013-05-27 15:30:00,
2013-05-27 08:35:00,65.2,56.7,29.92,SW,225,0.9,0.9,74,0.00,,,0.00,WUHU216HW,2013-05-27 15:35:00,
2013-05-27 08:40:00,65.2,56.7,29.92,SW,225,0.9,0.9,74,0.00,,,0.00,WUHU216HW,2013-05-27 15:40:00,
2013-05-27 08:59:00,68.9,57.5,29.92,SW,225,2.0,2.0,67,0.00,,,0.00,WUHU216HW,2013-05-27 15:59:00,
2013-05-27 09:04:00,69.1,57.7,29.92,SW,225,2.5,2.5,67,0.00,,,0.00,WUHU216HW,2013-05-27 16:04:00,
2013-05-27 09:09:00,69.1,57.7,29.92,SW,225,2.5,2.5,67,0.00,,,0.00,WUHU216HW,2013-05-27 16:09:00,
2013-05-27 09:30:00,70.2,55.3,29.93,SSE,158,1.8,1.8,59,0.00,,,0.00,WUHU216HW,2013-05-27 16:30:00,
2013-05-27 09:35:00,70.2,55.3,29.93,SSE,158,1.8,1.8,59,0.00,,,0.00,WUHU216HW,2013-05-27 16:35:00,
2013-05-27 09:40:00,70.2,55.3,29.93,SSE,158,1.8,1.8,59,0.00,,,0.00,WUHU216HW,2013-05-27 16:40:00,
2013-05-27 09:59:00,68.6,52.8,29.91,East,90,4.5,4.5,57,0.00,,,0.00,WUHU216HW,2013-05-27 16:59:00,
2013-05-27 10:04:00,68.6,52.8,29.91,East,90,3.4,4.5,57,0.00,,,0.00,WUHU216HW,2013-05-27 17:04:00,
2013-05-27 10:09:00,68.6,52.8,29.91,East,90,3.4,3.4,57,0.00,,,0.00,WUHU216HW,2013-05-27 17:09:00,
2013-05-27 10:30:00,71.8,53.2,29.91,SE,135,4.9,4.9,52,0.00,,,0.00,WUHU216HW,2013-05-27 17:30:00,
2013-05-27 10:35:00,71.8,52.7,29.91,SSE,158,3.4,4.9,51,0.00,,,0.00,WUHU216HW,2013-05-27 17:35:00,
2013-05-27 10:40:00,71.8,52.7,29.91,SSE,158,3.4,4.9,51,0.00,,,0.00,WUHU216HW,2013-05-27 17:40:00,
2013-05-27 10:59:00,71.1,53.6,29.91,SE,135,0.2,0.2,54,0.00,,,0.00,WUHU216HW,2013-05-27 17:59:00,
2013-05-27 11:04:00,71.1,54.1,29.91,SSE,158,0.0,0.2,55,0.00,,,0.00,WUHU216HW,2013-05-27 18:04:00,
2013-05-27 11:09:00,71.1,54.1,29.91,SSE,158,0.0,0.0,55,0.00,,,0.00,WUHU216HW,2013-05-27 18:09:00,
2013-05-27 11:30:00,70.4,53.9,29.90,WNW,293,9.6,9.6,56,0.00,,,0.00,WUHU216HW,2013-05-27 18:30:00,
2013-05-27 11:35:00,70.4,53.9,29.90,NW,315,7.8,9.6,56,0.00,,,0.00,WUHU216HW,2013-05-27 18:35:00,
2013-05-27 11:40:00,70.4,53.9,29.90,NW,315,7.8,9.6,56,0.00,,,0.00,WUHU216HW,2013-05-27 18:40:00,
2013-05-27 11:59:00,71.5,55.9,29.91,WNW,293,6.3,6.3,58,0.00,,,0.00,WUHU216HW,2013-05-27 18:59:00,
2013-05-27 12:04:00,71.5,55.9,29.91,WSW,248,10.5,10.5,58,0.00,,,0.00,WUHU216HW,2013-05-27 19:04:00,
2013-05-27 12:09:00,71.5,55.9,29.91,WSW,248,10.5,10.5,58,0.00,,,0.00,WUHU216HW,2013-05-27 19:09:00,
2013-05-27 12:30:00,70.4,55.5,29.91,WNW,293,12.1,12.1,59,0.00,,,0.00,WUHU216HW,2013-05-27 19:30:00,
2013-05-27 12:35:00,70.4,55.5,29.91,WNW,293,11.4,12.1,59,0.00,,,0.00,WUHU216HW,2013-05-27 19:35:00,
2013-05-27 12:40:00,70.4,55.5,29.91,WNW,293,11.4,11.4,59,0.00,,,0.00,WUHU216HW,2013-05-27 19:40:00,
2013-05-27 12:59:00,66.8,54.6,29.91,WSW,248,10.3,10.3,65,0.00,,,0.00,WUHU216HW,2013-05-27 19:59:00,
2013-05-27 13:04:00,66.8,54.6,29.91,WSW,248,14.3,14.3,65,0.00,,,0.00,WUHU216HW,2013-05-27 20:04:00,
2013-05-27 13:09:00,66.8,54.6,29.91,WSW,248,14.3,14.3,65,0.00,,,0.00,WUHU216HW,2013-05-27 20:09:00,
2013-05-27 13:30:00,63.7,54.5,29.92,WNW,293,12.5,12.5,72,0.00,,,0.00,WUHU216HW,2013-05-27 20:30:00,
2013-05-27 13:35:00,63.5,54.4,29.92,West,270,11.6,12.5,72,0.00,,,0.00,WUHU216HW,2013-05-27 20:35:00,
2013-05-27 13:40:00,63.5,54.4,29.92,West,270,11.6,12.5,72,0.00,,,0.00,WUHU216HW,2013-05-27 20:40:00,
2013-05-27 14:00:00,62.6,53.8,29.92,WNW,293,7.6,7.6,73,0.00,,,0.00,WUHU216HW,2013-05-27 21:00:00,
2013-05-27 14:04:00,62.6,53.8,29.92,WNW,293,7.4,7.6,73,0.00,,,0.00,WUHU216HW,2013-05-27 21:04:00,
2013-05-27 14:10:00,62.6,53.8,29.92,WNW,293,7.4,7.4,73,0.00,,,0.00,WUHU216HW,2013-05-27 21:10:00,
2013-05-27 14:30:00,62.6,54.2,29.92,NW,315,8.1,8.1,74,0.00,,,0.00,WUHU216HW,2013-05-27 21:30:00,
2013-05-27 14:35:00,62.6,54.2,29.92,NW,315,8.1,8.1,74,0.00,,,0.00,WUHU216HW,2013-05-27 21:35:00,
2013-05-27 14:40:00,62.6,54.2,29.92,NW,315,8.1,8.1,74,0.00,,,0.00,WUHU216HW,2013-05-27 21:40:00,
2013-05-27 15:00:00,62.3,55.6,29.92,NW,315,4.5,4.5,79,0.00,,,0.00,WUHU216HW,2013-05-27 22:00:00,
2013-05-27 15:05:00,62.3,55.6,29.92,WNW,293,8.5,8.5,79,0.00,,,0.00,WUHU216HW,2013-05-27 22:05:00,
2013-05-27 15:10:00,62.3,55.6,29.92,WNW,293,8.5,8.5,79,0.00,,,0.00,WUHU216HW,2013-05-27 22:10:00,
2013-05-27 15:30:00,65.7,55.3,29.90,WNW,293,10.7,10.7,69,0.00,,,0.00,WUHU216HW,2013-05-27 22:30:00,
2013-05-27 15:35:00,65.5,55.5,29.90,WNW,293,12.3,12.3,70,0.00,,,0.00,WUHU216HW,2013-05-27 22:35:00,
2013-05-27 15:40:00,65.5,55.5,29.90,WNW,293,12.3,12.3,70,0.00,,,0.00,WUHU216HW,2013-05-27 22:40:00,
2013-05-27 16:00:00,68.0,55.8,29.89,NNW,338,7.8,7.8,65,0.00,,,0.00,WUHU216HW,2013-05-27 23:00:00,
2013-05-27 16:05:00,68.0,55.8,29.89,NNW,338,8.9,8.9,65,0.00,,,0.00,WUHU216HW,2013-05-27 23:05:00,
2013-05-27 16:10:00,68.0,55.8,29.89,NNW,338,8.9,8.9,65,0.00,,,0.00,WUHU216HW,2013-05-27 23:10:00,
2013-05-27 16:30:00,68.6,55.9,29.89,WNW,293,7.8,7.8,64,0.00,,,0.00,WUHU216HW,2013-05-27 23:30:00,
2013-05-27 16:35:00,68.6,55.9,29.89,WNW,293,5.6,7.8,64,0.00,,,0.00,WUHU216HW,2013-05-27 23:35:00,
2013-05-27 16:40:00,68.6,55.9,29.89,WNW,293,5.6,5.6,64,0.00,,,0.00,WUHU216HW,2013-05-27 23:40:00,
2013-05-27 16:59:00,66.6,54.8,29.89,NW,315,7.8,7.8,66,0.00,,,0.00,WUHU216HW,2013-05-27 23:59:00,
2013-05-27 17:04:00,66.6,54.8,29.89,NW,315,6.7,7.8,66,0.00,,,0.00,WUHU216HW,2013-05-28 00:04:00,
2013-05-27 17:09:00,66.6,54.8,29.89,NW,315,6.7,7.8,66,0.00,,,0.00,WUHU216HW,2013-05-28 00:09:00,
2013-05-27 17:30:00,64.8,54.5,29.89,WSW,248,7.6,7.6,69,0.00,,,0.00,WUHU216HW,2013-05-28 00:30:00,
2013-05-27 17:35:00,64.6,54.3,29.89,WSW,248,7.6,7.6,69,0.00,,,0.00,WUHU216HW,2013-05-28 00:35:00,
2013-05-27 17:40:00,64.6,54.3,29.89,WSW,248,7.6,7.6,69,0.00,,,0.00,WUHU216HW,2013-05-28 00:40:00,
2013-05-27 17:59:00,65.0,55.0,29.88,WNW,293,3.4,3.4,70,0.00,,,0.00,WUHU216HW,2013-05-28 00:59:00,
2013-05-27 18:04:00,65.0,55.0,29.88,WNW,293,2.5,3.4,70,0.00,,,0.00,WUHU216HW,2013-05-28 01:04:00,
2013-05-27 18:09:00,65.0,55.0,29.88,WNW,293,2.5,2.5,70,0.00,,,0.00,WUHU216HW,2013-05-28 01:09:00,
2013-05-27 18:30:00,64.4,53.6,29.87,West,270,2.7,2.7,68,0.00,,,0.00,WUHU216HW,2013-05-28 01:30:00,
2013-05-27 18:35:00,64.4,54.1,29.87,WNW,293,2.5,2.7,69,0.00,,,0.00,WUHU216HW,2013-05-28 01:35:00,
2013-05-27 18:40:00,64.4,54.1,29.87,WNW,293,2.5,2.7,69,0.00,,,0.00,WUHU216HW,2013-05-28 01:40:00,
2013-05-27 18:59:00,64.1,53.7,29.86,West,270,6.3,6.3,69,0.00,,,0.00,WUHU216HW,2013-05-28 01:59:00,
2013-05-27 19:04:00,64.1,53.7,29.86,West,270,3.6,6.3,69,0.00,,,0.00,WUHU216HW,2013-05-28 02:04:00,
2013-05-27 19:09:00,64.1,53.7,29.86,West,270,3.6,3.6,69,0.00,,,0.00,WUHU216HW,2013-05-28 02:09:00,
2013-05-27 19:30:00,62.8,53.3,29.87,WNW,293,2.5,2.5,71,0.00,,,0.00,WUHU216HW,2013-05-28 02:30:00,
2013-05-27 19:35:00,62.8,53.3,29.87,West,270,4.7,4.7,71,0.00,,,0.00,WUHU216HW,2013-05-28 02:35:00,
2013-05-27 19:40:00,62.8,53.3,29.87,West,270,4.7,4.7,71,0.00,,,0.00,WUHU216HW,2013-05-28 02:40:00,
2013-05-27 19:59:00,62.3,52.4,29.87,WSW,248,1.8,1.8,70,0.00,,,0.00,WUHU216HW,2013-05-28 02:59:00,
2013-05-27 20:04:00,62.3,52.4,29.87,WSW,248,1.8,1.8,70,0.00,,,0.00,WUHU216HW,2013-05-28 03:04:00,
2013-05-27 20:09:00,62.3,52.4,29.87,WSW,248,1.8,1.8,70,0.00,,,0.00,WUHU216HW,2013-05-28 03:09:00,
2013-05-27 20:30:00,61.4,51.9,29.87,West,270,0.2,0.2,71,0.00,,,0.00,WUHU216HW,2013-05-28 03:30:00,
2013-05-27 20:35:00,61.4,51.9,29.87,West,270,0.2,0.2,71,0.00,,,0.00,WUHU216HW,2013-05-28 03:35:00,
2013-05-27 20:40:00,61.4,51.9,29.87,West,270,0.2,0.2,71,0.00,,,0.00,WUHU216HW,2013-05-28 03:40:00,
2013-05-27 20:59:00,60.5,51.8,29.86,SW,225,1.1,1.1,73,0.00,,,0.00,WUHU216HW,2013-05-28 03:59:00,
2013-05-27 21:01:00,60.5,51.8,29.86,SW,225,0.7,1.1,73,0.00,,,0.00,WUHU216HW,2013-05-28 04:01:00,
2013-05-27 21:06:00,60.5,51.8,29.86,SW,225,0.7,1.1,73,0.00,,,0.00,WUHU216HW,2013-05-28 04:06:00,
2013-05-27 21:30:00,59.6,50.9,29.86,West,270,0.7,0.7,73,0.00,,,0.00,WUHU216HW,2013-05-28 04:30:00,
2013-05-27 21:35:00,59.6,50.9,29.86,West,270,0.4,0.7,73,0.00,,,0.00,WUHU216HW,2013-05-28 04:35:00,
2013-05-27 21:40:00,59.6,50.9,29.86,West,270,0.4,0.7,73,0.00,,,0.00,WUHU216HW,2013-05-28 04:40:00,
2013-05-27 21:59:00,59.2,51.3,29.86,West,270,0.7,0.7,75,0.00,,,0.00,WUHU216HW,2013-05-28 04:59:00,
2013-05-27 22:04:00,59.2,51.3,29.86,SW,225,0.4,0.7,75,0.00,,,0.00,WUHU216HW,2013-05-28 05:04:00,
2013-05-27 22:09:00,59.2,51.3,29.86,SW,225,0.4,0.7,75,0.00,,,0.00,WUHU216HW,2013-05-28 05:09:00,
2013-05-27 22:30:00,58.9,51.3,29.85,South,180,2.2,2.2,76,0.00,,,0.00,WUHU216HW,2013-05-28 05:30:00,
2013-05-27 22:35:00,58.9,51.3,29.85,SSW,203,1.3,2.2,76,0.00,,,0.00,WUHU216HW,2013-05-28 05:35:00,
2013-05-27 22:40:00,58.9,51.3,29.85,SSW,203,1.3,2.2,76,0.00,,,0.00,WUHU216HW,2013-05-28 05:40:00,
2013-05-27 22:59:00,58.9,52.0,29.86,WSW,248,0.4,0.4,78,0.00,,,0.00,WUHU216HW,2013-05-28 05:59:00,
2013-05-27 23:04:00,58.9,52.0,29.86,WSW,248,1.1,1.1,78,0.00,,,0.00,WUHU216HW,2013-05-28 06:04:00,
2013-05-27 23:09:00,58.9,52.0,29.86,WSW,248,1.1,1.1,78,0.00,,,0.00,WUHU216HW,2013-05-28 06:09:00,
2013-05-27 23:30:00,58.7,52.2,29.86,WNW,293,4.3,4.3,79,0.00,,,0.00,WUHU216HW,2013-05-28 06:30:00,
2013-05-27 23:35:00,58.7,52.6,29.85,WSW,248,0.9,4.3,80,0.00,,,0.00,WUHU216HW,2013-05-28 06:35:00,
2013-05-27 23:40:00,58.7,52.6,29.85,WSW,248,0.9,0.9,80,0.00,,,0.00,WUHU216HW,2013-05-28 06:40:00,
2013-05-27 23:59:00,58.3,52.6,29.84,SW,225,1.1,1.1,81,0.00,,,0.00,WUHU216HW,2013-05-28 06:59:00,